createdAt,value
2019-04-27T00:00:55.817Z,11.94
2019-04-27T00:03:41.154Z,11.87
2019-04-27T00:06:14.091Z,11.82
2019-04-27T00:08:50.905Z,11.84
2019-04-27T00:11:33.086Z,11.79
2019-04-27T00:14:10.409Z,11.74
2019-04-27T00:16:56.651Z,11.71
2019-04-27T00:19:49.920Z,11.65
2019-04-27T00:22:27.680Z,11.63
2019-04-27T00:25:04.689Z,11.65
2019-04-27T00:27:40.227Z,11.64
2019-04-27T00:30:17.562Z,11.69
2019-04-27T00:32:53.595Z,11.65
2019-04-27T00:35:36.992Z,11.66
2019-04-27T00:38:26.885Z,11.68
2019-04-27T00:41:04.638Z,11.62
2019-04-27T00:43:40.447Z,11.63
2019-04-27T00:46:15.614Z,11.71
2019-04-27T00:48:50.770Z,11.67
2019-04-27T00:51:26.153Z,11.69
2019-04-27T00:54:01.602Z,11.72
2019-04-27T00:56:44.469Z,11.72
2019-04-27T00:59:38.666Z,11.68
2019-04-27T01:02:35.461Z,11.69
2019-04-27T01:05:27.999Z,11.73
2019-04-27T01:08:03.859Z,11.72
2019-04-27T01:10:38.984Z,11.72
2019-04-27T01:13:14.427Z,11.73
2019-04-27T01:15:49.698Z,11.71
2019-04-27T01:18:28.475Z,11.67
2019-04-27T01:21:03.847Z,11.69
2019-04-27T01:23:38.923Z,11.67
2019-04-27T01:26:33.173Z,11.70
2019-04-27T01:29:10.320Z,11.72
2019-04-27T01:31:45.668Z,11.74
2019-04-27T01:34:20.844Z,11.73
2019-04-27T01:36:56.603Z,11.77
2019-04-27T01:39:32.590Z,11.78
2019-04-27T01:42:08.910Z,11.81
2019-04-27T01:44:44.524Z,11.80
2019-04-27T01:47:19.621Z,11.84
2019-04-27T01:49:58.558Z,11.86
2019-04-27T01:52:33.659Z,11.82
2019-04-27T01:55:08.907Z,11.80
2019-04-27T01:57:45.620Z,11.78
2019-04-27T02:00:39.591Z,11.79
2019-04-27T02:03:16.348Z,11.77
2019-04-27T02:05:56.046Z,11.81
2019-04-27T02:08:32.854Z,11.87
2019-04-27T02:11:09.264Z,11.91
2019-04-27T02:13:46.582Z,11.94
2019-04-27T02:16:21.647Z,11.96
2019-04-27T02:18:58.561Z,12.01
2019-04-27T02:21:33.742Z,12.00
2019-04-27T02:24:13.305Z,12.00
2019-04-27T02:26:49.735Z,12.01
2019-04-27T02:29:36.240Z,11.99
2019-04-27T02:32:32.434Z,12.00
2019-04-27T02:35:09.472Z,12.02
2019-04-27T02:37:45.381Z,11.96
2019-04-27T02:40:49.565Z,11.95
2019-04-27T02:43:46.053Z,11.97
2019-04-27T02:46:22.239Z,11.93
2019-04-27T02:49:03.593Z,11.85
2019-04-27T02:51:54.561Z,11.84
2019-04-27T02:54:29.970Z,11.81
2019-04-27T02:57:05.235Z,11.82
2019-04-27T02:59:41.512Z,11.80
2019-04-27T03:02:19.639Z,11.79
2019-04-27T03:04:54.893Z,11.77
2019-04-27T03:07:30.927Z,11.75
2019-04-27T03:10:09.694Z,11.78
2019-04-27T03:12:45.779Z,11.74
2019-04-27T03:15:30.563Z,11.72
2019-04-27T03:18:24.137Z,11.71
2019-04-27T03:21:19.852Z,11.71
2019-04-27T03:23:54.226Z,11.70
2019-04-27T03:26:31.178Z,11.69
2019-04-27T03:29:06.346Z,11.65
2019-04-27T03:31:46.139Z,11.64
2019-04-27T03:34:22.277Z,11.61
2019-04-27T03:36:56.084Z,11.56
2019-04-27T03:39:32.913Z,11.49
2019-04-27T03:42:10.416Z,11.47
2019-04-27T03:44:50.284Z,11.50
2019-04-27T03:47:24.634Z,11.49
2019-04-27T03:50:00.218Z,11.49
2019-04-27T03:52:37.030Z,11.41
2019-04-27T03:55:13.866Z,11.34
2019-04-27T03:57:50.854Z,11.37
2019-04-27T04:00:30.067Z,11.38
2019-04-27T04:03:05.027Z,11.43
2019-04-27T04:05:41.345Z,11.43
2019-04-27T04:08:16.449Z,11.47
2019-04-27T04:11:00.359Z,11.48
2019-04-27T04:13:43.663Z,11.48
2019-04-27T04:16:36.589Z,11.51
2019-04-27T04:19:11.977Z,11.53
2019-04-27T04:21:50.131Z,11.55
2019-04-27T04:24:28.352Z,11.59
2019-04-27T04:27:06.615Z,11.58
2019-04-27T04:29:41.706Z,11.64
2019-04-27T04:32:19.070Z,11.65
2019-04-27T04:34:54.683Z,11.65
2019-04-27T04:37:29.895Z,11.66
2019-04-27T04:40:07.009Z,11.72
2019-04-27T04:42:46.374Z,11.74
2019-04-27T04:45:36.101Z,11.73
2019-04-27T04:48:12.886Z,11.74
2019-04-27T04:50:50.064Z,11.76
2019-04-27T04:53:24.935Z,11.81
2019-04-27T04:56:00.476Z,11.85
2019-04-27T04:58:37.014Z,11.87
2019-04-27T05:01:12.674Z,11.89
2019-04-27T05:03:48.815Z,11.86
2019-04-27T05:06:25.570Z,11.91
2019-04-27T05:09:00.920Z,12.00
2019-04-27T05:11:39.493Z,12.05
2019-04-27T05:14:14.495Z,12.08
2019-04-27T05:16:49.629Z,12.12
2019-04-27T05:19:25.226Z,12.14
2019-04-27T05:22:00.433Z,12.14
2019-04-27T05:24:35.888Z,12.21
2019-04-27T05:27:11.503Z,12.24
2019-04-27T05:29:46.569Z,12.26
2019-04-27T05:32:21.976Z,12.34
2019-04-27T05:34:59.690Z,12.33
2019-04-27T05:37:34.847Z,12.35
2019-04-27T05:40:09.926Z,12.38
2019-04-27T05:42:48.874Z,12.48
2019-04-27T05:46:03.372Z,12.51
2019-04-27T05:48:40.781Z,12.54
2019-04-27T05:51:16.326Z,12.57
2019-04-27T05:53:55.050Z,12.69
2019-04-27T05:56:39.050Z,12.73
2019-04-27T05:59:14.962Z,12.80
2019-04-27T06:01:51.540Z,12.92
2019-04-27T06:04:29.091Z,12.95
2019-04-27T06:07:06.728Z,12.94
2019-04-27T06:09:42.297Z,12.98
2019-04-27T06:12:18.940Z,13.02
2019-04-27T06:14:59.843Z,13.00
2019-04-27T06:17:35.247Z,13.04
2019-04-27T06:20:10.727Z,13.20
2019-04-27T06:22:46.276Z,13.24
2019-04-27T06:25:22.350Z,13.37
2019-04-27T06:27:59.129Z,13.49
2019-04-27T06:30:34.545Z,13.55
2019-04-27T06:33:09.606Z,13.67
2019-04-27T06:35:45.028Z,13.73
2019-04-27T06:38:20.373Z,13.83
2019-04-27T06:40:55.585Z,13.91
2019-04-27T06:43:30.759Z,13.98
2019-04-27T06:46:05.984Z,14.03
2019-04-27T06:48:41.099Z,14.05
2019-04-27T06:51:17.376Z,14.05
2019-04-27T06:53:52.778Z,13.99
2019-04-27T06:56:28.764Z,13.98
2019-04-27T06:59:04.435Z,14.13
2019-04-27T07:01:39.796Z,14.18
2019-04-27T07:04:15.196Z,14.12
2019-04-27T07:06:53.993Z,14.08
2019-04-27T07:09:29.526Z,14.15
2019-04-27T07:12:05.016Z,14.17
2019-04-27T07:14:52.363Z,14.20
2019-04-27T07:17:18.917Z,14.22
2019-04-27T07:19:56.261Z,14.30
2019-04-27T07:22:39.681Z,14.48
2019-04-27T07:25:14.968Z,14.56
2019-04-27T07:27:51.511Z,14.57
2019-04-27T07:30:32.445Z,14.71
2019-04-27T07:33:08.747Z,14.89
2019-04-27T07:35:45.327Z,14.84
2019-04-27T07:38:21.787Z,14.87
2019-04-27T07:41:05.906Z,15.05
2019-04-27T07:43:43.812Z,15.39
2019-04-27T07:46:19.327Z,15.58
2019-04-27T07:48:54.924Z,15.68
2019-04-27T07:51:34.179Z,15.83
2019-04-27T07:54:11.855Z,15.85
2019-04-27T07:56:50.037Z,16.03
2019-04-27T07:59:34.844Z,16.14
2019-04-27T08:02:11.207Z,16.28
2019-04-27T08:04:48.462Z,16.44
2019-04-27T08:07:25.987Z,16.36
2019-04-27T08:10:02.859Z,16.50
2019-04-27T08:12:38.961Z,16.38
2019-04-27T08:15:14.244Z,16.21
2019-04-27T08:17:49.917Z,16.17
2019-04-27T08:20:25.154Z,16.17
2019-04-27T08:23:01.356Z,16.21
2019-04-27T08:25:39.233Z,16.06
2019-04-27T08:28:35.357Z,16.11
2019-04-27T08:31:15.405Z,16.19
2019-04-27T08:33:51.998Z,16.14
2019-04-27T08:36:28.798Z,16.21
2019-04-27T08:39:08.911Z,16.35
2019-04-27T08:41:44.773Z,16.49
2019-04-27T08:44:20.237Z,16.91
2019-04-27T08:46:55.394Z,17.03
2019-04-27T08:49:31.437Z,17.66
2019-04-27T08:52:06.594Z,18.77
2019-04-27T08:54:42.600Z,19.74
2019-04-27T08:57:18.839Z,19.71
2019-04-27T08:59:55.100Z,19.88
2019-04-27T09:02:41.515Z,20.24
2019-04-27T09:05:09.403Z,20.15
2019-04-27T09:07:49.806Z,20.05
2019-04-27T09:10:28.903Z,19.71
2019-04-27T09:13:06.301Z,19.74
2019-04-27T09:15:43.149Z,20.19
2019-04-27T09:18:19.992Z,20.71
2019-04-27T09:21:04.474Z,20.69
2019-04-27T09:23:40.615Z,20.67
2019-04-27T09:26:18.600Z,20.67
2019-04-27T09:28:56.531Z,21.24
2019-04-27T09:31:34.310Z,21.89
2019-04-27T09:34:10.587Z,21.89
2019-04-27T09:36:46.628Z,21.67
2019-04-27T09:39:23.114Z,21.19
2019-04-27T09:42:00.102Z,21.22
2019-04-27T09:44:37.076Z,20.64
2019-04-27T09:47:12.410Z,19.98
2019-04-27T09:49:47.574Z,19.66
2019-04-27T09:52:26.193Z,19.36
2019-04-27T09:55:06.702Z,19.17
2019-04-27T09:57:42.920Z,19.10
2019-04-27T10:00:18.795Z,18.92
2019-04-27T10:02:59.475Z,18.80
2019-04-27T10:05:38.515Z,18.76
2019-04-27T10:08:13.745Z,19.01
2019-04-27T10:10:49.900Z,19.20
2019-04-27T10:13:25.698Z,19.44
2019-04-27T10:16:03.795Z,19.39
2019-04-27T10:18:45.864Z,19.92
2019-04-27T10:21:21.097Z,20.38
2019-04-27T10:23:56.760Z,20.56
2019-04-27T10:26:33.958Z,20.65
2019-04-27T10:29:10.526Z,20.78
2019-04-27T10:31:46.083Z,20.92
2019-04-27T10:34:24.072Z,21.20
2019-04-27T10:37:00.660Z,21.20
2019-04-27T10:39:36.314Z,20.75
2019-04-27T10:42:12.435Z,20.75
2019-04-27T10:44:52.958Z,20.69
2019-04-27T10:47:30.417Z,20.39
2019-04-27T10:50:07.548Z,20.76
2019-04-27T10:52:52.775Z,21.29
2019-04-27T10:55:21.213Z,21.62
2019-04-27T10:57:57.376Z,22.01
2019-04-27T11:00:36.728Z,22.02
2019-04-27T11:03:16.528Z,22.14
2019-04-27T11:05:53.643Z,22.77
2019-04-27T11:08:28.764Z,23.04
2019-04-27T11:11:03.924Z,23.16
2019-04-27T11:13:41.657Z,23.00
2019-04-27T11:16:16.818Z,22.43
2019-04-27T11:18:52.959Z,22.38
2019-04-27T11:21:28.084Z,22.79
2019-04-27T11:24:10.189Z,23.56
2019-04-27T11:26:46.647Z,24.03
2019-04-27T11:29:23.479Z,23.86
2019-04-27T11:32:00.145Z,23.56
2019-04-27T11:34:55.857Z,24.06
2019-04-27T11:37:32.891Z,24.36
2019-04-27T11:40:13.884Z,24.56
2019-04-27T11:42:50.167Z,24.53
2019-04-27T11:45:28.516Z,24.30
2019-04-27T11:48:05.761Z,23.89
2019-04-27T11:50:45.716Z,23.29
2019-04-27T11:53:23.190Z,23.93
2019-04-27T11:55:58.643Z,23.66
2019-04-27T11:58:35.838Z,23.89
2019-04-27T12:01:13.258Z,23.28
2019-04-27T12:03:55.650Z,23.27
2019-04-27T12:06:31.845Z,24.92
2019-04-27T12:09:12.811Z,25.76
2019-04-27T12:11:48.268Z,25.78
2019-04-27T12:14:23.617Z,26.49
2019-04-27T12:16:59.457Z,27.21
2019-04-27T12:19:51.786Z,27.61
2019-04-27T12:22:47.758Z,28.10
2019-04-27T12:25:25.360Z,28.15
2019-04-27T12:28:16.594Z,27.98
2019-04-27T12:31:04.814Z,28.53
2019-04-27T12:33:42.974Z,27.48
2019-04-27T12:36:25.808Z,25.62
2019-04-27T12:39:06.935Z,24.59
2019-04-27T12:41:48.480Z,24.44
2019-04-27T12:44:26.604Z,24.93
2019-04-27T12:47:02.634Z,25.10
2019-04-27T12:49:52.950Z,23.90
2019-04-27T12:52:29.062Z,23.09
2019-04-27T12:55:26.320Z,22.31
2019-04-27T12:58:17.568Z,21.99
2019-04-27T13:00:56.493Z,22.39
2019-04-27T13:03:33.486Z,22.44
2019-04-27T13:06:11.616Z,22.29
2019-04-27T13:09:41.601Z,22.03
2019-04-27T13:11:27.658Z,21.90
2019-04-27T13:14:02.858Z,21.58
2019-04-27T13:16:38.248Z,21.30
2019-04-27T13:19:13.542Z,21.19
2019-04-27T13:21:48.749Z,21.05
2019-04-27T13:24:23.938Z,20.78
2019-04-27T13:26:59.157Z,20.63
2019-04-27T13:29:35.753Z,20.37
2019-04-27T13:32:12.139Z,20.39
2019-04-27T13:34:48.995Z,20.48
2019-04-27T13:37:39.317Z,20.43
2019-04-27T13:40:17.048Z,20.31
2019-04-27T13:43:07.959Z,20.34
2019-04-27T13:45:51.715Z,20.13
2019-04-27T13:48:47.003Z,20.10
2019-04-27T13:51:37.822Z,20.08
2019-04-27T13:54:23.745Z,19.98
2019-04-27T13:56:56.289Z,19.79
2019-04-27T13:59:34.934Z,19.85
2019-04-27T14:02:11.423Z,19.95
2019-04-27T14:04:53.304Z,19.94
2019-04-27T14:07:29.773Z,19.96
2019-04-27T14:10:09.319Z,19.81
2019-04-27T14:12:44.832Z,19.82
2019-04-27T14:15:19.918Z,19.90
2019-04-27T14:17:56.058Z,19.87
2019-04-27T14:20:31.302Z,19.83
2019-04-27T14:23:11.611Z,19.90
2019-04-27T14:25:50.180Z,19.92
2019-04-27T14:28:26.309Z,19.90
2019-04-27T14:31:01.381Z,20.00
2019-04-27T14:33:39.562Z,20.03
2019-04-27T14:36:15.140Z,20.15
2019-04-27T14:38:50.717Z,20.17
2019-04-27T14:41:25.785Z,20.31
2019-04-27T14:44:08.077Z,20.55
2019-04-27T14:46:39.723Z,20.89
2019-04-27T14:49:14.965Z,21.15
2019-04-27T14:51:51.484Z,22.06
2019-04-27T14:54:30.182Z,22.77
2019-04-27T14:57:09.139Z,23.06
2019-04-27T14:59:51.283Z,23.15
2019-04-27T15:02:27.697Z,22.62
2019-04-27T15:05:03.239Z,22.38
2019-04-27T15:07:39.658Z,22.13
2019-04-27T15:10:16.472Z,22.14
2019-04-27T15:12:55.368Z,21.70
2019-04-27T15:15:32.501Z,21.74
2019-04-27T15:18:13.471Z,22.26
2019-04-27T15:20:51.705Z,23.17
2019-04-27T15:23:31.832Z,23.68
2019-04-27T15:26:10.389Z,23.93
2019-04-27T15:28:49.532Z,24.26
2019-04-27T15:31:30.634Z,23.41
2019-04-27T15:34:11.479Z,22.74
2019-04-27T15:36:52.900Z,22.52
2019-04-27T15:39:48.519Z,22.04
2019-04-27T15:42:41.652Z,21.70
2019-04-27T15:45:15.969Z,21.48
2019-04-27T15:47:54.610Z,21.50
2019-04-27T15:50:31.958Z,22.29
2019-04-27T15:53:09.862Z,22.89
2019-04-27T15:55:42.923Z,23.53
2019-04-27T15:58:24.798Z,24.10
2019-04-27T16:01:00.147Z,24.97
2019-04-27T16:03:35.140Z,25.17
2019-04-27T16:06:19.072Z,25.30
2019-04-27T16:08:55.277Z,25.43
2019-04-27T16:11:38.432Z,25.08
2019-04-27T16:14:15.993Z,25.14
2019-04-27T16:16:51.847Z,25.35
2019-04-27T16:19:28.770Z,25.25
2019-04-27T16:22:04.257Z,25.16
2019-04-27T16:24:39.499Z,24.16
2019-04-27T16:27:14.665Z,23.10
2019-04-27T16:29:50.926Z,22.33
2019-04-27T16:32:27.834Z,21.48
2019-04-27T16:35:03.020Z,20.91
2019-04-27T16:38:00.003Z,20.35
2019-04-27T16:40:35.260Z,19.97
2019-04-27T16:43:10.668Z,19.58
2019-04-27T16:45:59.723Z,19.22
2019-04-27T16:48:34.642Z,19.17
2019-04-27T16:51:10.678Z,18.99
2019-04-27T16:53:46.132Z,18.89
2019-04-27T16:56:24.588Z,18.83
2019-04-27T16:59:26.752Z,18.76
2019-04-27T17:01:50.299Z,18.76
2019-04-27T17:04:25.567Z,18.91
2019-04-27T17:07:02.683Z,18.99
2019-04-27T17:09:42.134Z,19.04
2019-04-27T17:12:18.045Z,19.00
2019-04-27T17:15:10.621Z,18.96
2019-04-27T17:18:05.953Z,18.88
2019-04-27T17:23:40.175Z,18.66
2019-04-27T17:26:21.692Z,18.57
2019-04-27T17:29:10.946Z,18.54
2019-04-27T17:31:44.905Z,18.46
2019-04-27T17:34:25.262Z,18.40
2019-04-27T17:36:59.106Z,18.42
2019-04-27T17:39:34.415Z,18.34
2019-04-27T17:42:09.635Z,18.35
2019-04-27T17:44:45.731Z,18.25
2019-04-27T17:47:26.430Z,18.13
2019-04-27T17:50:09.308Z,18.05
2019-04-27T17:52:48.514Z,18.04
2019-04-27T17:55:25.334Z,17.99
2019-04-27T17:58:05.481Z,17.94
2019-04-27T18:00:44.710Z,17.93
2019-04-27T18:03:21.174Z,17.85
2019-04-27T18:05:58.141Z,17.82
2019-04-27T18:08:33.754Z,17.78
2019-04-27T18:11:09.847Z,17.75
2019-04-27T18:13:51.404Z,17.72
2019-04-27T18:16:33.929Z,17.62
2019-04-27T18:19:18.296Z,17.60
2019-04-27T18:22:00.886Z,17.54
2019-04-27T18:24:48.179Z,17.53
2019-04-27T18:27:25.241Z,17.49
2019-04-27T18:30:19.093Z,17.44
2019-04-27T18:32:59.362Z,17.33
2019-04-27T18:35:34.218Z,17.26
2019-04-27T18:38:10.202Z,17.22
2019-04-27T18:40:48.830Z,17.19
2019-04-27T18:43:38.429Z,17.22
2019-04-27T18:46:19.041Z,17.16
2019-04-27T18:48:54.196Z,17.04
2019-04-27T18:51:38.313Z,16.89
2019-04-27T18:54:18.403Z,16.77
2019-04-27T18:57:02.183Z,16.66
2019-04-27T18:59:30.626Z,16.55
2019-04-27T19:02:09.425Z,16.45
2019-04-27T19:04:44.940Z,16.34
2019-04-27T19:07:21.652Z,16.28
2019-04-27T19:09:58.827Z,16.22
2019-04-27T19:12:35.556Z,16.18
2019-04-27T19:15:12.140Z,16.21
2019-04-27T19:17:48.944Z,16.21
2019-04-27T19:20:28.651Z,16.21
2019-04-27T19:23:06.205Z,16.17
2019-04-27T19:25:48.605Z,16.11
2019-04-27T19:28:39.586Z,16.08
2019-04-27T19:31:16.354Z,16.03
2019-04-27T19:33:51.725Z,15.93
2019-04-27T19:36:27.944Z,15.85
2019-04-27T19:39:08.761Z,15.76
2019-04-27T19:41:59.473Z,15.67
2019-04-27T19:44:25.326Z,15.59
2019-04-27T19:47:00.719Z,15.50
2019-04-27T19:49:46.125Z,15.45
2019-04-27T19:52:22.756Z,15.42
2019-04-27T19:55:00.403Z,15.38
2019-04-27T19:57:40.331Z,15.33
2019-04-27T20:00:31.745Z,15.27
2019-04-27T20:03:08.763Z,15.20
2019-04-27T20:05:45.241Z,15.15
2019-04-27T20:08:25.809Z,15.08
2019-04-27T20:11:03.600Z,14.99
2019-04-27T20:13:38.910Z,14.96
2019-04-27T20:16:21.111Z,14.93
2019-04-27T20:18:56.269Z,14.86
2019-04-27T20:21:32.894Z,14.80
2019-04-27T20:24:14.961Z,14.77
2019-04-27T20:26:52.810Z,14.74
2019-04-27T20:29:28.139Z,14.72
2019-04-27T20:32:04.163Z,14.69
2019-04-27T20:34:41.138Z,14.65
2019-04-27T20:37:21.053Z,14.61
2019-04-27T20:39:58.178Z,14.58
2019-04-27T20:42:35.003Z,14.54
2019-04-27T20:45:11.955Z,14.48
2019-04-27T20:47:47.564Z,14.44
2019-04-27T20:50:22.671Z,14.36
2019-04-27T20:52:58.751Z,14.33
2019-04-27T20:55:34.197Z,14.31
2019-04-27T20:58:11.202Z,14.31
2019-04-27T21:00:46.732Z,14.38
2019-04-27T21:03:32.497Z,14.37
2019-04-27T21:06:11.067Z,14.30
2019-04-27T21:08:47.240Z,14.25
2019-04-27T21:11:23.691Z,14.18
2019-04-27T21:14:01.052Z,14.17
2019-04-27T21:16:38.435Z,14.14
2019-04-27T21:19:15.103Z,14.13
2019-04-27T21:21:51.577Z,14.04
2019-04-27T21:24:27.047Z,14.01
2019-04-27T21:27:02.797Z,13.99
2019-04-27T21:29:42.084Z,13.95
2019-04-27T21:32:18.116Z,13.98
2019-04-27T21:34:54.927Z,14.00
2019-04-27T21:37:30.660Z,14.02
2019-04-27T21:40:14.493Z,13.98
2019-04-27T21:42:51.191Z,13.91
2019-04-27T21:45:26.722Z,13.85
2019-04-27T21:48:02.247Z,13.88
2019-04-27T21:50:37.575Z,13.84
2019-04-27T21:53:26.974Z,13.79
2019-04-27T21:56:04.556Z,13.77
2019-04-27T21:58:41.810Z,13.72
2019-04-27T22:01:24.749Z,13.73
2019-04-27T22:04:01.053Z,13.72
2019-04-27T22:06:37.518Z,13.70
2019-04-27T22:09:13.555Z,13.65
2019-04-27T22:11:51.080Z,13.66
2019-04-27T22:14:28.624Z,13.66
2019-04-27T22:17:03.823Z,13.65
2019-04-27T22:19:43.759Z,13.61
2019-04-27T22:22:23.115Z,13.61
2019-04-27T22:25:01.307Z,13.62
2019-04-27T22:27:36.665Z,13.58
2019-04-27T22:30:11.840Z,13.62
2019-04-27T22:32:48.026Z,13.58
2019-04-27T22:35:23.129Z,13.56
2019-04-27T22:37:58.678Z,13.49
2019-04-27T22:40:53.542Z,13.45
2019-04-27T22:43:36.459Z,13.43
2019-04-27T22:46:13.245Z,13.33
2019-04-27T22:48:49.340Z,13.26
2019-04-27T22:51:24.470Z,13.20
2019-04-27T22:54:01.244Z,13.16
2019-04-27T22:56:36.853Z,13.08
2019-04-27T22:59:21.469Z,13.06
2019-04-27T23:02:14.544Z,13.05
2019-04-27T23:05:01.953Z,13.07
2019-04-27T23:07:38.036Z,13.08
2019-04-27T23:10:13.737Z,13.12
2019-04-27T23:12:50.958Z,13.08
2019-04-27T23:15:28.247Z,13.16
2019-04-27T23:18:03.489Z,13.20
2019-04-27T23:20:40.782Z,13.19
2019-04-27T23:23:15.828Z,13.15
2019-04-27T23:25:51.389Z,13.18
2019-04-27T23:28:31.313Z,13.20
2019-04-27T23:31:12.708Z,13.22
2019-04-27T23:33:49.438Z,13.25
2019-04-27T23:36:24.531Z,13.26
2019-04-27T23:39:01.085Z,13.29
2019-04-27T23:41:38.107Z,13.30
2019-04-27T23:44:13.276Z,13.30
2019-04-27T23:46:48.375Z,13.30
2019-04-27T23:49:23.856Z,13.31
2019-04-27T23:52:10.576Z,13.33
2019-04-27T23:54:45.718Z,13.31
2019-04-27T23:57:21.772Z,13.25
2019-04-27T23:59:57.419Z,13.20
